Yatesville, Georgia
Current Conditions -  °F | °C
As of 11:15 PM on Friday 31 Oct 2014 (Local Time) from KOPN Reporting Station
Overcast Overcast  
Wind Chill: 52°   Ceiling: 2300
Heat Index: 52°   Visibility: 10mi
Dew Point: 45°   Wind: 16mph
Humidity: 76%   Direction: 320°NW
Pressure: 29.95"   Gusts: 30mph
Location:  32.91°N, 84.14°W
Report Text: KOPN 010315Z AUTO 32014G26KT 10SM BKN023 OVC030 11/07 A2995 RMK AO2
Loading
Personal Weather Stations






























Interactive Weather Map
Tropical Storm Tracking
New forecast layout! Learn more

10-Day Weather Forecast

Advertisements
Track Severe Weather on mobile